createdAt,value
2018-06-25T00:00:40.423Z,30.00
2018-06-25T00:01:40.888Z,26.40
2018-06-25T00:02:40.677Z,26.00
2018-06-25T00:04:03.545Z,27.20
2018-06-25T00:05:04.244Z,27.80
2018-06-25T00:06:04.098Z,30.20
2018-06-25T00:07:04.738Z,24.80
2018-06-25T00:08:27.770Z,31.20
2018-06-25T00:09:28.555Z,29.20
2018-06-25T00:10:28.085Z,25.30
2018-06-25T00:11:29.276Z,26.20
2018-06-25T00:12:49.191Z,32.70
2018-06-25T00:13:49.911Z,33.60
2018-06-25T00:14:49.426Z,27.90
2018-06-25T00:15:50.019Z,27.70
2018-06-25T00:16:49.431Z,27.80
2018-06-25T00:17:49.722Z,30.00
2018-06-25T00:18:49.340Z,31.70
2018-06-25T00:20:32.380Z,27.20
2018-06-25T00:21:32.961Z,32.60
2018-06-25T00:22:32.286Z,34.10
2018-06-25T00:23:32.811Z,31.20
2018-06-25T00:24:33.346Z,33.40
2018-06-25T00:25:32.883Z,28.20
2018-06-25T00:26:32.926Z,33.20
2018-06-25T00:27:32.362Z,30.90
2018-06-25T00:28:32.934Z,30.90
2018-06-25T00:29:54.295Z,27.90
2018-06-25T00:30:54.868Z,38.60
2018-06-25T00:31:54.498Z,38.30
2018-06-25T00:33:17.424Z,33.80
2018-06-25T00:34:18.065Z,37.80
2018-06-25T00:35:17.540Z,37.80
2018-06-25T00:36:18.399Z,40.20
2018-06-25T00:37:17.737Z,29.60
2018-06-25T00:38:18.275Z,34.20
2018-06-25T00:39:17.825Z,37.70
2018-06-25T00:40:18.401Z,43.70
2018-06-25T00:41:18.259Z,37.60
2018-06-25T00:42:17.667Z,36.90
2018-06-25T00:43:18.267Z,37.70
2018-06-25T00:44:39.167Z,34.00
2018-06-25T00:45:39.727Z,37.40
2018-06-25T00:46:40.061Z,42.30
2018-06-25T00:47:39.382Z,41.80
2018-06-25T00:49:00.936Z,42.20
2018-06-25T00:50:01.401Z,42.70
2018-06-25T00:51:02.047Z,38.30
2018-06-25T00:52:01.470Z,38.60
2018-06-25T00:53:01.173Z,40.40
2018-06-25T00:54:44.643Z,41.50
2018-06-25T00:55:45.303Z,36.70
2018-06-25T00:56:44.709Z,38.40
2018-06-25T00:57:45.107Z,42.30
2018-06-25T00:58:44.562Z,37.50
2018-06-25T00:59:45.123Z,38.00
2018-06-25T01:00:44.818Z,34.40
2018-06-25T01:01:45.320Z,38.80
2018-06-25T01:02:44.712Z,35.80
2018-06-25T01:03:45.072Z,39.50
2018-06-25T01:04:44.959Z,36.60
2018-06-25T01:06:06.977Z,39.50
2018-06-25T01:07:07.375Z,40.40
2018-06-25T01:08:06.797Z,34.90
2018-06-25T01:09:07.326Z,36.40
2018-06-25T01:10:07.078Z,45.00
2018-06-25T01:11:08.169Z,41.40
2018-06-25T01:12:07.827Z,43.70
2018-06-25T01:13:07.214Z,43.80
2018-06-25T01:14:06.690Z,42.10
2018-06-25T01:15:49.552Z,39.00
2018-06-25T01:16:50.204Z,39.70
2018-06-25T01:17:49.730Z,35.60
2018-06-25T01:18:50.274Z,39.90
2018-06-25T01:19:50.061Z,33.80
2018-06-25T01:20:50.582Z,35.80
2018-06-25T01:21:50.280Z,37.50
2018-06-25T01:22:49.819Z,39.20
2018-06-25T01:23:50.464Z,36.30
2018-06-25T01:24:49.963Z,38.40
2018-06-25T01:25:49.570Z,41.40
2018-06-25T01:26:50.437Z,44.00
2018-06-25T01:27:50.066Z,39.60
2018-06-25T01:28:49.610Z,45.30
2018-06-25T01:29:50.059Z,48.40
2018-06-25T01:30:50.562Z,44.90
2018-06-25T01:31:50.051Z,43.90
2018-06-25T01:32:49.725Z,44.90
2018-06-25T01:33:50.049Z,49.00
2018-06-25T01:34:50.398Z,43.50
2018-06-25T01:36:11.030Z,51.50
2018-06-25T01:37:54.502Z,43.50
2018-06-25T01:38:55.071Z,49.60
2018-06-25T01:39:54.874Z,51.30
2018-06-25T01:40:55.210Z,47.70
2018-06-25T01:41:54.849Z,41.10
2018-06-25T01:42:55.483Z,55.70
2018-06-25T01:43:54.898Z,49.10
2018-06-25T01:44:55.356Z,48.10
2018-06-25T01:45:54.810Z,48.30
2018-06-25T01:46:55.140Z,47.10
2018-06-25T01:47:54.494Z,47.00
2018-06-25T01:48:55.292Z,50.60
2018-06-25T01:49:54.980Z,53.40
2018-06-25T01:50:54.405Z,62.00
2018-06-25T01:51:54.844Z,68.90
2018-06-25T01:52:55.469Z,65.50
2018-06-25T01:53:54.948Z,79.50
2018-06-25T01:54:55.339Z,75.30
2018-06-25T01:55:54.677Z,90.20
2018-06-25T01:56:55.170Z,84.80
2018-06-25T01:57:54.544Z,84.90
2018-06-25T01:58:55.139Z,85.00
2018-06-25T01:59:54.732Z,89.50
2018-06-25T02:00:55.037Z,85.20
2018-06-25T02:01:54.535Z,84.70
2018-06-25T02:02:55.050Z,82.10
2018-06-25T02:03:55.365Z,62.30
2018-06-25T02:04:54.873Z,62.60
2018-06-25T02:05:54.390Z,66.00
2018-06-25T02:06:54.988Z,58.90
2018-06-25T02:07:55.330Z,56.00
2018-06-25T02:08:54.844Z,58.60
2018-06-25T02:09:54.403Z,52.70
2018-06-25T02:10:55.198Z,49.10
2018-06-25T02:11:54.737Z,50.20
2018-06-25T02:13:16.501Z,47.00
2018-06-25T02:14:17.200Z,48.60
2018-06-25T02:15:16.731Z,42.60
2018-06-25T02:16:17.141Z,49.70
2018-06-25T02:17:16.616Z,47.50
2018-06-25T02:18:17.482Z,58.70
2018-06-25T02:19:17.098Z,51.50
2018-06-25T02:20:16.436Z,47.80
2018-06-25T02:21:17.002Z,53.10
2018-06-25T02:22:16.320Z,46.00
2018-06-25T02:23:26.913Z,45.20
2018-06-25T02:24:16.390Z,50.80
2018-06-25T02:25:17.272Z,52.60
2018-06-25T02:26:16.992Z,47.90
2018-06-25T02:27:16.417Z,51.80
2018-06-25T02:28:17.010Z,51.00
2018-06-25T02:29:16.888Z,59.70
2018-06-25T02:30:17.475Z,56.20
2018-06-25T02:31:17.117Z,55.90
2018-06-25T02:32:16.708Z,53.50
2018-06-25T02:33:38.722Z,56.20
2018-06-25T02:34:39.008Z,58.00
2018-06-25T02:35:39.489Z,54.40
2018-06-25T02:36:39.115Z,57.70
2018-06-25T02:37:38.939Z,58.00
2018-06-25T02:38:39.689Z,56.70
2018-06-25T02:39:39.314Z,51.40
2018-06-25T02:40:39.032Z,52.20
2018-06-25T02:41:39.582Z,49.90
2018-06-25T02:42:39.161Z,63.00
2018-06-25T02:43:38.730Z,65.10
2018-06-25T02:45:00.456Z,59.00
2018-06-25T02:46:01.245Z,61.80
2018-06-25T02:47:01.032Z,62.20
2018-06-25T02:48:01.162Z,61.00
2018-06-25T02:49:00.586Z,65.50
2018-06-25T02:50:01.205Z,63.40
2018-06-25T02:51:01.109Z,64.30
2018-06-25T02:52:01.008Z,63.90
2018-06-25T02:53:01.435Z,59.50
2018-06-25T02:54:00.907Z,69.40
2018-06-25T02:55:01.331Z,64.00
2018-06-25T02:56:01.168Z,61.50
2018-06-25T02:57:01.066Z,65.90
2018-06-25T02:58:00.841Z,76.90
2018-06-25T02:59:25.129Z,61.30
2018-06-25T03:00:24.720Z,70.20
2018-06-25T03:01:25.335Z,93.20
2018-06-25T03:02:25.498Z,95.70
2018-06-25T03:03:25.200Z,83.90
2018-06-25T03:04:24.855Z,74.50
2018-06-25T03:05:25.204Z,84.00
2018-06-25T03:06:46.066Z,74.10
2018-06-25T03:07:46.723Z,78.40
2018-06-25T03:08:46.329Z,78.00
2018-06-25T03:09:46.865Z,99.00
2018-06-25T03:10:46.609Z,96.50
2018-06-25T03:11:46.079Z,86.30
2018-06-25T03:12:46.727Z,96.90
2018-06-25T03:13:46.186Z,87.80
2018-06-25T03:14:46.730Z,81.80
2018-06-25T03:15:46.251Z,98.00
2018-06-25T03:16:46.781Z,87.80
2018-06-25T03:17:46.212Z,86.70
2018-06-25T03:18:46.599Z,86.20
2018-06-25T03:19:47.121Z,84.10
2018-06-25T03:20:46.569Z,74.10
2018-06-25T03:21:46.070Z,76.40
2018-06-25T03:22:46.836Z,70.90
2018-06-25T03:23:46.539Z,74.70
2018-06-25T03:24:46.117Z,64.30
2018-06-25T03:25:46.652Z,73.30
2018-06-25T03:26:46.340Z,66.90
2018-06-25T03:27:47.067Z,74.30
2018-06-25T03:28:46.455Z,72.50
2018-06-25T03:29:45.974Z,69.70
2018-06-25T03:30:46.494Z,74.20
2018-06-25T03:31:46.289Z,70.50
2018-06-25T03:32:46.625Z,72.70
2018-06-25T03:33:46.089Z,64.40
2018-06-25T03:34:47.437Z,61.10
2018-06-25T03:35:46.126Z,64.50
2018-06-25T03:36:46.616Z,66.50
2018-06-25T03:37:46.162Z,67.70
2018-06-25T03:38:46.699Z,67.90
2018-06-25T03:39:46.062Z,71.00
2018-06-25T03:40:46.600Z,64.60
2018-06-25T03:41:45.891Z,59.60
2018-06-25T03:42:46.425Z,67.00
2018-06-25T03:43:46.820Z,70.00
2018-06-25T03:44:46.388Z,73.40
2018-06-25T03:45:46.895Z,65.90
2018-06-25T03:46:46.465Z,68.60
2018-06-25T03:47:45.870Z,70.90
2018-06-25T03:48:46.376Z,70.50
2018-06-25T03:49:46.703Z,63.10
2018-06-25T03:50:46.217Z,62.90
2018-06-25T03:51:47.261Z,74.00
2018-06-25T03:52:46.795Z,65.00
2018-06-25T03:53:52.089Z,68.50
2018-06-25T03:54:58.119Z,66.20
2018-06-25T03:55:59.410Z,61.50
2018-06-25T03:56:58.126Z,69.40
2018-06-25T03:57:46.808Z,64.10
2018-06-25T03:58:46.348Z,65.80
2018-06-25T04:00:08.887Z,70.90
2018-06-25T04:01:09.681Z,76.70
2018-06-25T04:02:09.441Z,61.70
2018-06-25T04:03:08.726Z,75.30
2018-06-25T04:04:15.095Z,69.20
2018-06-25T04:05:31.085Z,72.30
2018-06-25T04:06:31.503Z,75.30
2018-06-25T04:07:30.969Z,79.00
2018-06-25T04:08:31.520Z,68.40
2018-06-25T04:09:52.645Z,60.30
2018-06-25T04:10:53.195Z,68.50
2018-06-25T04:11:52.809Z,69.80
2018-06-25T04:12:53.251Z,63.60
2018-06-25T04:13:53.557Z,66.10
2018-06-25T04:14:53.186Z,62.40
2018-06-25T04:15:52.919Z,71.90
2018-06-25T04:16:53.508Z,62.60
2018-06-25T04:17:52.944Z,72.00
2018-06-25T04:18:53.503Z,59.20
2018-06-25T04:19:53.298Z,62.00
2018-06-25T04:20:52.985Z,65.80
2018-06-25T04:21:53.633Z,64.70
2018-06-25T04:22:53.397Z,65.10
2018-06-25T04:23:52.917Z,53.10
2018-06-25T04:24:53.463Z,60.10
2018-06-25T04:25:53.060Z,54.60
2018-06-25T04:26:53.726Z,64.40
2018-06-25T04:27:53.061Z,56.90
2018-06-25T04:28:53.587Z,68.30
2018-06-25T04:29:53.245Z,63.00
2018-06-25T04:31:14.610Z,69.00
2018-06-25T04:32:35.539Z,56.80
2018-06-25T04:33:35.914Z,52.40
2018-06-25T04:34:56.791Z,55.30
2018-06-25T04:35:57.317Z,59.30
2018-06-25T04:36:56.877Z,58.10
2018-06-25T04:37:57.415Z,54.50
2018-06-25T04:38:57.152Z,55.50
2018-06-25T04:39:57.633Z,53.10
2018-06-25T04:40:57.349Z,55.50
2018-06-25T04:41:56.979Z,53.90
2018-06-25T04:42:57.566Z,54.30
2018-06-25T04:43:57.259Z,58.40
2018-06-25T04:45:18.105Z,52.90
2018-06-25T04:46:39.831Z,64.10
2018-06-25T04:47:40.266Z,62.00
2018-06-25T04:48:40.832Z,57.70
2018-06-25T04:49:40.508Z,61.20
2018-06-25T04:50:40.009Z,59.30
2018-06-25T04:51:40.641Z,59.10
2018-06-25T04:52:40.318Z,55.30
2018-06-25T04:54:01.193Z,56.10
2018-06-25T04:55:01.655Z,49.70
2018-06-25T04:56:01.476Z,54.00
2018-06-25T04:57:44.402Z,53.80
2018-06-25T04:58:45.149Z,56.00
2018-06-25T04:59:44.808Z,53.40
2018-06-25T05:00:45.214Z,55.20
2018-06-25T05:01:44.917Z,62.30
2018-06-25T05:02:44.345Z,59.60
2018-06-25T05:04:06.375Z,58.80
2018-06-25T05:05:07.345Z,53.60
2018-06-25T05:06:07.212Z,58.30
2018-06-25T05:07:06.851Z,52.40
2018-06-25T05:08:06.432Z,56.80
2018-06-25T05:09:28.670Z,55.30
2018-06-25T05:10:29.212Z,51.10
2018-06-25T05:11:28.749Z,48.80
2018-06-25T05:12:29.367Z,53.40
2018-06-25T05:13:50.280Z,50.20
2018-06-25T05:14:50.655Z,54.40
2018-06-25T05:15:50.745Z,48.30
2018-06-25T05:16:50.225Z,59.60
2018-06-25T05:17:50.741Z,49.80
2018-06-25T05:18:50.322Z,47.80
2018-06-25T05:19:50.669Z,51.80
2018-06-25T05:20:50.529Z,48.40
2018-06-25T05:21:51.214Z,53.00
2018-06-25T05:22:50.571Z,51.50
2018-06-25T05:23:50.223Z,48.90
2018-06-25T05:24:52.179Z,52.00
2018-06-25T05:25:50.564Z,52.30
2018-06-25T05:26:50.222Z,43.70
2018-06-25T05:27:50.994Z,54.60
2018-06-25T05:28:50.694Z,44.50
2018-06-25T05:29:50.382Z,44.70
2018-06-25T05:30:50.945Z,46.00
2018-06-25T05:31:50.870Z,41.10
2018-06-25T05:32:50.390Z,40.70
2018-06-25T05:34:14.718Z,50.70
2018-06-25T05:35:15.394Z,41.30
2018-06-25T05:36:15.308Z,50.10
2018-06-25T05:37:15.040Z,40.60
2018-06-25T05:38:14.660Z,42.40
2018-06-25T05:39:15.151Z,47.70
2018-06-25T05:40:14.998Z,46.70
2018-06-25T05:41:14.464Z,42.80
2018-06-25T05:42:15.077Z,42.50
2018-06-25T05:43:14.585Z,42.20
2018-06-25T05:44:15.333Z,41.90
2018-06-25T05:45:14.989Z,46.30
2018-06-25T05:46:14.778Z,46.20
2018-06-25T05:47:59.416Z,43.90
2018-06-25T05:49:00.060Z,39.60
2018-06-25T05:50:21.582Z,48.10
2018-06-25T05:51:22.254Z,51.00
2018-06-25T05:52:22.089Z,34.90
2018-06-25T05:53:22.198Z,47.30
2018-06-25T05:54:21.728Z,51.00
2018-06-25T05:55:46.347Z,37.50
2018-06-25T05:56:46.594Z,42.80
2018-06-25T05:57:46.217Z,42.70
2018-06-25T05:59:09.128Z,41.50
2018-06-25T06:00:09.608Z,47.30
2018-06-25T06:01:32.908Z,35.80
2018-06-25T06:02:33.719Z,35.50
2018-06-25T06:03:33.435Z,42.00
2018-06-25T06:04:32.927Z,36.30
2018-06-25T06:05:33.769Z,46.60
2018-06-25T06:06:33.405Z,33.30
2018-06-25T06:07:33.078Z,41.00
2018-06-25T06:08:33.704Z,34.00
2018-06-25T06:09:54.716Z,37.30
2018-06-25T06:10:55.125Z,30.80
2018-06-25T06:12:18.855Z,39.90
2018-06-25T06:13:19.266Z,35.30
2018-06-25T06:14:19.685Z,31.50
2018-06-25T06:15:19.092Z,28.40
2018-06-25T06:16:20.012Z,31.10
2018-06-25T06:17:19.865Z,31.20
2018-06-25T06:18:19.348Z,30.10
2018-06-25T06:19:19.281Z,24.90
2018-06-25T06:20:18.859Z,28.80
2018-06-25T06:21:19.375Z,36.30
2018-06-25T06:22:19.865Z,25.90
2018-06-25T06:23:19.654Z,25.90
2018-06-25T06:24:19.575Z,35.40
2018-06-25T06:25:19.157Z,25.50
2018-06-25T06:26:19.206Z,27.60
2018-06-25T06:27:19.808Z,25.60
2018-06-25T06:28:19.479Z,26.50
2018-06-25T06:29:19.185Z,25.80
2018-06-25T06:30:42.886Z,25.90
2018-06-25T06:31:43.588Z,31.00
2018-06-25T06:32:43.367Z,22.00
2018-06-25T06:33:42.926Z,19.00
2018-06-25T06:34:43.468Z,19.70
2018-06-25T06:35:42.972Z,21.50
2018-06-25T06:37:07.198Z,20.00
2018-06-25T06:38:08.140Z,19.30
2018-06-25T06:39:07.529Z,25.80
2018-06-25T06:40:07.238Z,20.30
2018-06-25T06:41:06.875Z,16.90
2018-06-25T06:42:07.472Z,17.30
2018-06-25T06:43:07.182Z,19.90
2018-06-25T06:44:07.727Z,17.00
2018-06-25T06:45:07.610Z,14.30
2018-06-25T06:46:07.183Z,19.00
2018-06-25T06:47:07.740Z,22.90
2018-06-25T06:48:07.363Z,17.10
2018-06-25T06:49:31.742Z,23.00
2018-06-25T06:50:54.153Z,23.70
2018-06-25T06:51:54.909Z,16.40
2018-06-25T06:53:18.871Z,16.80
2018-06-25T06:54:19.479Z,16.70
2018-06-25T06:55:19.932Z,17.10
2018-06-25T06:56:18.617Z,17.90
2018-06-25T06:57:19.351Z,21.80
2018-06-25T06:58:19.057Z,23.90
2018-06-25T06:59:23.490Z,27.20
2018-06-25T07:00:19.987Z,26.00
2018-06-25T07:01:18.518Z,23.40
2018-06-25T07:02:42.312Z,20.10
2018-06-25T07:03:41.612Z,17.00
2018-06-25T07:04:41.780Z,19.00
2018-06-25T07:05:41.246Z,17.30
2018-06-25T07:06:40.801Z,18.20
2018-06-25T07:07:44.862Z,17.10
2018-06-25T07:08:51.171Z,18.50
2018-06-25T07:09:49.178Z,13.00
2018-06-25T07:10:41.019Z,16.70
2018-06-25T07:12:02.244Z,18.30
2018-06-25T07:13:03.056Z,13.20
2018-06-25T07:14:03.143Z,12.40
2018-06-25T07:15:02.862Z,13.70
2018-06-25T07:16:02.687Z,13.30
2018-06-25T07:17:03.820Z,11.80
2018-06-25T07:18:02.564Z,14.60
2018-06-25T07:19:02.488Z,12.00
2018-06-25T07:20:03.134Z,15.40
2018-06-25T07:21:02.795Z,12.30
2018-06-25T07:22:02.397Z,12.00
2018-06-25T07:23:06.900Z,14.40
2018-06-25T07:24:02.735Z,16.40
2018-06-25T07:25:03.190Z,14.40
2018-06-25T07:26:02.890Z,13.10
2018-06-25T07:27:02.819Z,19.10
2018-06-25T07:28:02.315Z,15.10
2018-06-25T07:29:04.177Z,14.90
2018-06-25T07:30:25.726Z,12.80
2018-06-25T07:31:25.345Z,17.70
2018-06-25T07:32:25.099Z,17.20
2018-06-25T07:33:45.987Z,14.40
2018-06-25T07:34:47.063Z,16.90
2018-06-25T07:35:47.329Z,15.50
2018-06-25T07:37:07.197Z,16.10
2018-06-25T07:38:07.889Z,17.80
2018-06-25T07:39:07.556Z,16.50
2018-06-25T07:40:08.385Z,12.00
2018-06-25T07:41:08.405Z,14.60
2018-06-25T07:42:08.465Z,20.40
2018-06-25T07:43:08.291Z,15.30
2018-06-25T07:44:07.804Z,13.30
2018-06-25T07:45:07.773Z,14.20
2018-06-25T07:46:07.641Z,14.80
2018-06-25T07:47:07.595Z,15.00
2018-06-25T07:48:08.509Z,14.60
2018-06-25T07:49:07.381Z,13.40
2018-06-25T07:50:08.224Z,14.80
2018-06-25T07:51:08.205Z,12.70
2018-06-25T07:52:07.925Z,14.00
2018-06-25T07:53:07.788Z,14.20
2018-06-25T07:54:08.662Z,15.80
2018-06-25T07:55:07.332Z,14.90
2018-06-25T07:56:07.970Z,19.20
2018-06-25T07:57:07.832Z,15.30
2018-06-25T07:58:07.820Z,14.50
2018-06-25T07:59:09.449Z,17.70
2018-06-25T08:00:29.629Z,12.80
2018-06-25T08:01:30.235Z,14.60
2018-06-25T08:02:29.692Z,13.80
2018-06-25T08:03:30.449Z,15.70
2018-06-25T08:04:30.296Z,17.80
2018-06-25T08:05:52.303Z,19.50
2018-06-25T08:06:54.416Z,16.00
2018-06-25T08:07:52.050Z,13.20
2018-06-25T08:08:53.360Z,17.10
2018-06-25T08:09:53.660Z,14.70
2018-06-25T08:10:52.493Z,12.80
2018-06-25T08:11:52.534Z,15.20
2018-06-25T08:12:52.384Z,14.70
2018-06-25T08:13:53.197Z,14.80
2018-06-25T08:14:53.291Z,13.60
2018-06-25T08:15:52.968Z,17.90
2018-06-25T08:16:53.101Z,12.50
2018-06-25T08:17:52.923Z,15.10
2018-06-25T08:18:52.849Z,15.70
2018-06-25T08:19:52.559Z,17.70
2018-06-25T08:20:52.423Z,18.40
2018-06-25T08:21:52.987Z,15.00
2018-06-25T08:22:52.542Z,16.30
2018-06-25T08:23:52.479Z,15.10
2018-06-25T08:24:52.188Z,14.30
2018-06-25T08:25:53.655Z,15.70
2018-06-25T08:27:35.647Z,14.90
2018-06-25T08:28:36.342Z,11.30
2018-06-25T08:29:36.052Z,18.10
2018-06-25T08:30:35.815Z,18.00
2018-06-25T08:31:36.210Z,13.00
2018-06-25T08:32:38.431Z,18.60
2018-06-25T08:33:36.643Z,20.20
2018-06-25T08:34:37.118Z,10.50
2018-06-25T08:35:37.960Z,10.30
2018-06-25T08:36:35.660Z,14.00
2018-06-25T08:37:36.742Z,12.80
2018-06-25T08:38:36.516Z,14.50
2018-06-25T08:39:36.987Z,14.60
2018-06-25T08:40:35.861Z,11.00
2018-06-25T08:41:58.310Z,15.10
2018-06-25T08:42:59.168Z,9.40
2018-06-25T08:43:57.977Z,10.10
2018-06-25T08:44:59.148Z,12.70
2018-06-25T08:45:58.815Z,13.20
2018-06-25T08:46:59.584Z,12.10
2018-06-25T08:47:58.196Z,10.00
2018-06-25T08:48:59.046Z,11.20
2018-06-25T08:49:58.659Z,10.80
2018-06-25T08:50:58.275Z,13.00
2018-06-25T08:52:01.190Z,12.70
2018-06-25T08:52:57.922Z,11.20
2018-06-25T08:53:58.962Z,8.80
2018-06-25T08:54:58.879Z,11.80
2018-06-25T08:55:58.691Z,11.50
2018-06-25T08:56:58.797Z,12.30
2018-06-25T08:57:58.502Z,11.90
2018-06-25T08:58:58.300Z,10.20
2018-06-25T08:59:57.849Z,7.40
2018-06-25T09:00:58.801Z,9.40
2018-06-25T09:01:58.796Z,11.20
2018-06-25T09:02:58.451Z,10.80
2018-06-25T09:03:58.208Z,12.50
2018-06-25T09:04:58.304Z,16.10
2018-06-25T09:05:58.203Z,9.40
2018-06-25T09:06:58.812Z,13.20
2018-06-25T09:07:58.279Z,14.10
2018-06-25T09:08:58.087Z,12.30
2018-06-25T09:09:58.260Z,13.20
2018-06-25T09:10:59.420Z,16.80
2018-06-25T09:11:57.994Z,17.80
2018-06-25T09:13:21.329Z,16.20
2018-06-25T09:14:24.203Z,13.00
2018-06-25T09:15:36.126Z,14.40
2018-06-25T09:16:23.955Z,11.80
2018-06-25T09:17:20.814Z,10.50
2018-06-25T09:18:20.824Z,10.50
2018-06-25T09:19:22.422Z,13.00
2018-06-25T09:20:22.654Z,12.10
2018-06-25T09:21:21.297Z,8.60
2018-06-25T09:22:20.847Z,8.70
2018-06-25T09:23:21.330Z,12.90
2018-06-25T09:24:46.373Z,13.00
2018-06-25T09:25:47.300Z,13.80
2018-06-25T09:26:46.677Z,13.90
2018-06-25T09:27:45.362Z,13.40
2018-06-25T09:28:47.075Z,17.70
2018-06-25T09:29:46.414Z,14.60
2018-06-25T09:30:46.107Z,13.00
2018-06-25T09:31:46.028Z,10.20
2018-06-25T09:32:45.789Z,13.40
2018-06-25T09:33:45.401Z,10.90
2018-06-25T09:34:46.136Z,11.70
2018-06-25T09:35:45.872Z,9.10
2018-06-25T09:36:45.619Z,10.70
2018-06-25T09:37:46.196Z,11.50
2018-06-25T09:38:45.703Z,13.20
2018-06-25T09:39:45.250Z,10.40
2018-06-25T09:40:46.084Z,12.70
2018-06-25T09:41:46.206Z,11.20
2018-06-25T09:42:45.271Z,8.20
2018-06-25T09:43:45.938Z,13.60
2018-06-25T09:44:45.712Z,12.90
2018-06-25T09:45:45.409Z,10.50
2018-06-25T09:46:46.139Z,11.20
2018-06-25T09:47:46.073Z,11.40
2018-06-25T09:48:45.808Z,12.60
2018-06-25T09:49:46.305Z,11.40
2018-06-25T09:50:46.093Z,11.40
2018-06-25T09:51:45.714Z,7.40
2018-06-25T09:53:08.871Z,10.00
2018-06-25T09:54:09.473Z,10.00
2018-06-25T09:55:09.526Z,17.60
2018-06-25T09:56:09.353Z,12.40
2018-06-25T09:57:09.252Z,14.10
2018-06-25T09:58:09.930Z,14.10
2018-06-25T09:59:09.434Z,9.80
2018-06-25T10:00:10.325Z,10.80
2018-06-25T10:01:09.046Z,13.20
2018-06-25T10:02:31.080Z,13.50
2018-06-25T10:03:32.130Z,10.20
2018-06-25T10:04:32.098Z,13.90
2018-06-25T10:05:32.047Z,11.10
2018-06-25T10:06:32.042Z,14.20
2018-06-25T10:07:32.017Z,9.90
2018-06-25T10:08:31.592Z,11.90
2018-06-25T10:09:31.199Z,9.80
2018-06-25T10:10:32.033Z,9.60
2018-06-25T10:11:31.943Z,7.30
2018-06-25T10:12:31.509Z,12.30
2018-06-25T10:13:31.955Z,8.40
2018-06-25T10:14:31.852Z,11.40
2018-06-25T10:15:52.718Z,9.60
2018-06-25T10:17:17.253Z,10.90
2018-06-25T10:18:17.903Z,9.90
2018-06-25T10:19:17.627Z,13.80
2018-06-25T10:20:38.955Z,12.10
2018-06-25T10:21:39.468Z,8.20
2018-06-25T10:22:38.976Z,6.00
2018-06-25T10:23:39.567Z,5.80
2018-06-25T10:24:39.067Z,9.50
2018-06-25T10:26:03.446Z,6.90
2018-06-25T10:27:04.785Z,7.60
2018-06-25T10:28:03.611Z,8.10
2018-06-25T10:29:03.553Z,6.70
2018-06-25T10:30:03.596Z,6.50
2018-06-25T10:31:03.200Z,5.70
2018-06-25T10:32:03.833Z,6.20
2018-06-25T10:33:03.403Z,6.50
2018-06-25T10:34:04.479Z,9.40
2018-06-25T10:35:03.968Z,5.30
2018-06-25T10:36:03.763Z,8.90
2018-06-25T10:37:03.123Z,6.90
2018-06-25T10:38:03.585Z,9.50
2018-06-25T10:39:26.870Z,8.30
2018-06-25T10:40:27.847Z,5.50
2018-06-25T10:41:27.931Z,5.60
2018-06-25T10:42:27.588Z,7.50
2018-06-25T10:43:50.259Z,5.00
2018-06-25T10:44:50.691Z,8.20
2018-06-25T10:45:51.118Z,8.20
2018-06-25T10:46:50.665Z,6.80
2018-06-25T10:47:51.142Z,6.10
2018-06-25T10:48:50.874Z,5.60
2018-06-25T10:49:50.785Z,6.40
2018-06-25T10:50:50.559Z,9.80
2018-06-25T10:51:51.657Z,5.50
2018-06-25T10:52:51.491Z,3.80
2018-06-25T10:53:51.357Z,6.50
2018-06-25T10:55:12.674Z,7.20
2018-06-25T10:56:12.374Z,8.40
2018-06-25T10:57:13.417Z,5.90
2018-06-25T10:58:36.923Z,6.30
2018-06-25T10:59:37.417Z,6.30
2018-06-25T11:00:59.625Z,7.50
2018-06-25T11:01:59.757Z,6.40
2018-06-25T11:02:59.579Z,5.90
2018-06-25T11:04:00.079Z,6.50
2018-06-25T11:04:59.613Z,6.90
2018-06-25T11:06:46.948Z,6.40
2018-06-25T11:07:47.712Z,6.90
2018-06-25T11:08:47.223Z,5.70
2018-06-25T11:09:47.857Z,9.30
2018-06-25T11:10:47.682Z,6.70
2018-06-25T11:11:47.589Z,4.70
2018-06-25T11:12:47.308Z,8.50
2018-06-25T11:14:30.491Z,3.70
2018-06-25T11:15:31.093Z,4.90
2018-06-25T11:16:54.576Z,5.70
2018-06-25T11:17:55.350Z,7.50
2018-06-25T11:18:55.933Z,6.00
2018-06-25T11:19:54.459Z,7.10
2018-06-25T11:20:54.940Z,10.50
2018-06-25T11:21:55.386Z,5.80
2018-06-25T11:22:56.100Z,9.00
2018-06-25T11:23:54.980Z,5.50
2018-06-25T11:24:54.534Z,5.00
2018-06-25T11:25:55.468Z,7.70
2018-06-25T11:27:41.886Z,4.80
2018-06-25T11:28:42.485Z,5.80
2018-06-25T11:29:42.114Z,5.40
2018-06-25T11:30:42.108Z,7.30
2018-06-25T11:31:42.993Z,7.20
2018-06-25T11:32:42.923Z,7.50
2018-06-25T11:33:42.761Z,5.80
2018-06-25T11:34:42.749Z,8.70
2018-06-25T11:35:42.535Z,5.00
2018-06-25T11:36:42.088Z,6.60
2018-06-25T11:38:05.356Z,3.70
2018-06-25T11:39:29.808Z,5.90
2018-06-25T11:40:52.363Z,6.30
2018-06-25T11:41:52.857Z,7.80
2018-06-25T11:43:39.507Z,4.10
2018-06-25T11:44:40.116Z,5.00
2018-06-25T11:45:39.800Z,8.90
2018-06-25T11:46:40.745Z,5.40
2018-06-25T11:47:40.312Z,7.30
2018-06-25T11:48:40.075Z,5.90
2018-06-25T11:49:40.117Z,6.10
2018-06-25T11:50:40.156Z,7.70
2018-06-25T11:51:39.953Z,9.60
2018-06-25T11:52:39.620Z,5.30
2018-06-25T11:53:40.363Z,6.50
2018-06-25T11:54:39.810Z,5.70
2018-06-25T11:55:40.252Z,5.50
2018-06-25T11:56:40.740Z,5.40
2018-06-25T11:57:40.695Z,7.40
2018-06-25T11:58:40.646Z,5.50
2018-06-25T11:59:41.226Z,4.90
2018-06-25T12:00:39.926Z,5.50
2018-06-25T12:02:01.607Z,4.30
2018-06-25T12:03:01.489Z,7.00
2018-06-25T12:04:01.030Z,7.30
2018-06-25T12:05:01.677Z,7.10
2018-06-25T12:06:02.725Z,4.90
2018-06-25T12:07:01.346Z,3.20
2018-06-25T12:08:02.095Z,6.90
2018-06-25T12:09:02.021Z,5.00
2018-06-25T12:10:01.525Z,5.00
2018-06-25T12:11:01.084Z,8.70
2018-06-25T12:12:25.291Z,5.50
2018-06-25T12:13:27.440Z,5.20
2018-06-25T12:14:26.298Z,8.20
2018-06-25T12:15:26.024Z,6.50
2018-06-25T12:16:48.998Z,4.20
2018-06-25T12:17:49.859Z,7.20
2018-06-25T12:19:13.753Z,13.50
2018-06-25T12:20:13.790Z,5.70
2018-06-25T12:21:13.667Z,6.70
2018-06-25T12:22:14.218Z,5.90
2018-06-25T12:23:59.918Z,4.20
2018-06-25T12:25:00.985Z,4.90
2018-06-25T12:25:59.549Z,10.50
2018-06-25T12:27:00.648Z,8.50
2018-06-25T12:28:00.594Z,7.60
2018-06-25T12:29:00.720Z,7.50
2018-06-25T12:30:01.254Z,6.50
2018-06-25T12:31:00.298Z,4.40
2018-06-25T12:32:00.183Z,6.00
2018-06-25T12:33:00.072Z,9.40
2018-06-25T12:34:00.432Z,6.80
2018-06-25T12:35:00.802Z,4.80
2018-06-25T12:36:00.501Z,7.50
2018-06-25T12:37:00.488Z,4.40
2018-06-25T12:38:24.147Z,7.40
2018-06-25T12:39:26.711Z,5.20
2018-06-25T12:40:24.100Z,8.10
2018-06-25T12:41:24.571Z,8.10
2018-06-25T12:42:24.509Z,5.70
2018-06-25T12:43:24.100Z,4.90
2018-06-25T12:44:24.177Z,5.10
2018-06-25T12:45:23.809Z,5.10
2018-06-25T12:46:24.470Z,6.00
2018-06-25T12:47:48.580Z,5.70
2018-06-25T12:48:49.499Z,6.60
2018-06-25T12:49:49.440Z,5.30
2018-06-25T12:50:49.181Z,5.60
2018-06-25T12:51:48.877Z,8.90
2018-06-25T12:52:48.743Z,11.10
2018-06-25T12:53:48.494Z,10.60
2018-06-25T12:55:28.087Z,6.90
2018-06-25T12:56:28.833Z,7.90
2018-06-25T12:57:28.469Z,6.90
2018-06-25T12:58:53.206Z,7.20
2018-06-25T12:59:54.109Z,5.20
2018-06-25T13:00:52.957Z,7.10
2018-06-25T13:01:54.031Z,7.20
2018-06-25T13:02:54.565Z,8.50
2018-06-25T13:03:54.154Z,8.50
2018-06-25T13:04:52.852Z,9.30
2018-06-25T13:05:53.681Z,10.00
2018-06-25T13:06:53.487Z,7.70
2018-06-25T13:07:53.132Z,6.20
2018-06-25T13:09:18.971Z,8.20
2018-06-25T13:10:18.945Z,7.80
2018-06-25T13:11:43.338Z,11.10
2018-06-25T13:12:43.534Z,5.50
2018-06-25T13:13:43.377Z,5.20
2018-06-25T13:14:43.771Z,5.60
2018-06-25T13:15:42.297Z,8.00
2018-06-25T13:16:43.382Z,6.30
2018-06-25T13:17:43.309Z,7.80
2018-06-25T13:18:43.516Z,5.00
2018-06-25T13:19:43.007Z,6.10
2018-06-25T13:20:43.523Z,9.00
2018-06-25T13:22:07.701Z,7.90
2018-06-25T13:23:07.422Z,7.60
2018-06-25T13:24:07.349Z,7.90
2018-06-25T13:25:07.334Z,5.20
2018-06-25T13:26:06.877Z,5.30
2018-06-25T13:27:06.542Z,4.40
2018-06-25T13:28:07.247Z,5.80
2018-06-25T13:29:30.976Z,8.40
2018-06-25T13:31:04.002Z,8.00
2018-06-25T13:32:04.760Z,5.90
2018-06-25T13:33:04.377Z,6.40
2018-06-25T13:34:04.214Z,6.80
2018-06-25T13:35:04.661Z,6.30
2018-06-25T13:36:25.788Z,9.80
2018-06-25T13:37:32.300Z,6.10